GGBF weather

Bafatá Airport
Bafatá, Bafatá Region, Guinea-Bissau

Public forecast

Using degrees Celsius for public forecast. Weather courtesy of forecast.io.

Closest aviation weather report (METAR) to Bafatá Airport

Report is more than 6 hours old.

Closest report is Osvaldo Vieira International Airport, 60.9 nm (112.7 km) WSW. Retrieved 2020/04/07 22:00 UTC (7 hours ago):

GGOV 072200Z 21010KT 180V260 CAVOK 32/22 Q1009 NOSIG

Closest aviation forecast (TAF) to Bafatá Airport

Forecast is more than 6 hours old.

Closest forecast is Osvaldo Vieira International Airport, 60.9 nm (112.7 km) WSW. Retrieved 2020/04/07 18:26 UTC (11 hours ago):

TAF GGOV 071700Z 0718/0818 23008KT CAVOK